createdAt,value
2022-08-11T00:02:17.802Z,54.9
2022-08-11T00:05:13.473Z,56.5
2022-08-11T00:08:04.577Z,56.2
2022-08-11T00:10:52.338Z,55
2022-08-11T00:13:43.810Z,55.5
2022-08-11T00:16:34.721Z,57.6
2022-08-11T00:20:15.413Z,58.1
2022-08-11T00:23:05.212Z,57.7
2022-08-11T00:25:55.611Z,57.9
2022-08-11T00:28:44.110Z,56.4
2022-08-11T00:31:31.600Z,58.9
2022-08-11T00:34:22.016Z,58.3
2022-08-11T00:37:13.114Z,58.1
2022-08-11T00:40:06.544Z,57.2
2022-08-11T00:43:03.726Z,59.4
2022-08-11T00:46:04.210Z,58.9
2022-08-11T00:49:01.280Z,57.4
2022-08-11T00:52:05.451Z,59.2
2022-08-11T00:55:08.998Z,59.5
2022-08-11T00:58:58.470Z,59.2
2022-08-11T01:02:11.893Z,59.2
2022-08-11T01:05:03.845Z,59
2022-08-11T01:08:14.377Z,59.2
2022-08-11T01:11:23.214Z,60.7
2022-08-11T01:14:33.829Z,59.7
2022-08-11T01:17:57.734Z,59.5
2022-08-11T01:21:38.430Z,60.2
2022-08-11T01:25:09.872Z,59.7
2022-08-11T01:28:40.942Z,59.1
2022-08-11T01:32:18.831Z,60.4
2022-08-11T01:36:00.693Z,60.2
2022-08-11T01:39:14.168Z,60.9
2022-08-11T01:43:04.663Z,61.4
2022-08-11T01:47:21.303Z,60.8
2022-08-11T01:50:51.141Z,63
2022-08-11T01:53:50.759Z,57.7
2022-08-11T01:56:47.206Z,55
2022-08-11T01:59:59.367Z,56
2022-08-11T02:02:54.491Z,55.3
2022-08-11T02:05:55.230Z,58.1
2022-08-11T02:09:39.059Z,59.8
2022-08-11T02:14:14.935Z,60.5
2022-08-11T02:17:12.918Z,61.2
2022-08-11T02:20:05.673Z,60.4
2022-08-11T02:24:05.622Z,61.6
2022-08-11T02:27:02.934Z,61.3
2022-08-11T02:29:59.349Z,62.5
2022-08-11T02:32:52.072Z,56.3
2022-08-11T02:36:23.910Z,55.1
2022-08-11T02:39:27.980Z,56.1
2022-08-11T02:42:42.181Z,57
2022-08-11T02:45:42.622Z,58.7
2022-08-11T02:48:40.399Z,60.1
2022-08-11T02:52:10.449Z,60.1
2022-08-11T02:55:09.820Z,60.1
2022-08-11T02:58:42.907Z,60.3
2022-08-11T03:02:34.940Z,60.7
2022-08-11T03:05:41.949Z,61.3
2022-08-11T03:08:54.886Z,61.2
2022-08-11T03:11:51.765Z,62.7
2022-08-11T03:15:21.264Z,57.7
2022-08-11T03:19:30.426Z,56.1
2022-08-11T03:22:31.439Z,57.5
2022-08-11T03:25:25.606Z,58.2
2022-08-11T03:28:19.462Z,58.7
2022-08-11T03:31:15.283Z,59.8
2022-08-11T03:34:12.441Z,60.2
2022-08-11T03:37:17.019Z,60.8
2022-08-11T03:40:36.699Z,61
2022-08-11T03:44:09.284Z,63.6
2022-08-11T03:47:13.402Z,59.5
2022-08-11T03:50:17.223Z,56.1
2022-08-11T03:53:18.505Z,57.5
2022-08-11T03:56:47.581Z,59.7
2022-08-11T04:00:25.079Z,60.8
2022-08-11T04:03:57.565Z,60.1
2022-08-11T04:07:35.609Z,60.7
2022-08-11T04:10:58.232Z,63.2
2022-08-11T04:14:09.142Z,58.8
2022-08-11T04:17:51.160Z,57.2
2022-08-11T04:21:03.354Z,58.8
2022-08-11T04:24:13.086Z,60.1
2022-08-11T04:27:44.975Z,61.6
2022-08-11T04:31:10.094Z,62.4
2022-08-11T04:34:19.596Z,61.1
2022-08-11T04:37:35.112Z,56.6
2022-08-11T04:40:51.358Z,57.1
2022-08-11T04:46:05.091Z,60.3
2022-08-11T04:49:08.308Z,61.9
2022-08-11T04:52:52.722Z,61.4
2022-08-11T04:56:30.975Z,55.7
2022-08-11T04:59:57.275Z,57.3
2022-08-11T05:03:23.831Z,60
2022-08-11T05:06:30.853Z,61.9
2022-08-11T05:09:51.698Z,61.8
2022-08-11T05:12:55.555Z,55.8
2022-08-11T05:29:55.253Z,59.6
2022-08-11T05:33:19.667Z,57
2022-08-11T05:36:47.913Z,59
2022-08-11T05:39:39.640Z,60.8
2022-08-11T05:43:05.268Z,62
2022-08-11T05:46:30.065Z,61
2022-08-11T05:49:58.211Z,56.5
2022-08-11T05:53:17.705Z,57.9
2022-08-11T05:56:38.048Z,60
2022-08-11T05:59:33.211Z,61.4
2022-08-11T06:02:21.470Z,63.1
2022-08-11T06:05:09.370Z,61.6
2022-08-11T06:07:58.839Z,56.3
2022-08-11T06:10:47.818Z,56.4
2022-08-11T06:13:36.768Z,57.6
2022-08-11T06:16:29.669Z,59.9
2022-08-11T06:19:17.539Z,61.3
2022-08-11T06:22:09.471Z,61.8
2022-08-11T06:24:58.297Z,63.2
2022-08-11T06:27:47.852Z,58.2
2022-08-11T06:30:41.497Z,55.7
2022-08-11T06:33:31.246Z,56.2
2022-08-11T06:36:24.392Z,57.3
2022-08-11T06:39:19.406Z,58.7
2022-08-11T06:42:12.755Z,58.6
2022-08-11T06:45:17.606Z,58.9
2022-08-11T06:48:13.405Z,59.7
2022-08-11T06:51:03.720Z,59.4
2022-08-11T06:54:04.843Z,58.7
2022-08-11T06:57:28.369Z,59.8
2022-08-11T07:01:30.373Z,59.7
2022-08-11T07:04:31.112Z,59.8
2022-08-11T07:07:28.496Z,59.2
2022-08-11T07:11:32.083Z,59
2022-08-11T07:16:10.892Z,58.8
2022-08-11T07:19:07.157Z,58.9
2022-08-11T07:22:26.828Z,58.8
2022-08-11T07:25:49.391Z,58.6
2022-08-11T07:29:10.767Z,58.1
2022-08-11T07:31:59.512Z,58.2
2022-08-11T07:34:56.601Z,57.8
2022-08-11T07:38:01.431Z,57.5
2022-08-11T07:40:53.128Z,57.3
2022-08-11T07:43:44.488Z,56.7
2022-08-11T07:46:37.345Z,56.9
2022-08-11T07:49:58.015Z,56.7
2022-08-11T07:53:17.751Z,55.5
2022-08-11T07:56:07.161Z,55.3
2022-08-11T07:59:06.326Z,54.9
2022-08-11T08:02:29.108Z,55.1
2022-08-11T08:05:50.006Z,54.8
2022-08-11T08:09:10.097Z,53.5
2022-08-11T08:12:31.020Z,53.3
2022-08-11T08:15:52.671Z,52.9
2022-08-11T08:19:13.585Z,51.7
2022-08-11T08:22:37.447Z,51.7
2022-08-11T08:25:27.191Z,51.8
2022-08-11T08:28:17.579Z,51.3
2022-08-11T08:31:06.799Z,50.8
2022-08-11T08:33:54.413Z,47.4
2022-08-11T08:36:42.009Z,48.9
2022-08-11T08:39:32.187Z,49.4
2022-08-11T08:42:22.541Z,49
2022-08-11T08:45:13.266Z,48.7
2022-08-11T08:48:03.045Z,49.4
2022-08-11T08:50:56.224Z,49
2022-08-11T08:54:26.916Z,49.1
2022-08-11T08:57:18.844Z,48.1
2022-08-11T09:00:09.018Z,48.3
2022-08-11T09:03:17.496Z,48.4
2022-08-11T09:06:26.824Z,46.9
2022-08-11T09:09:17.652Z,45.9
2022-08-11T09:12:07.132Z,45.5
2022-08-11T09:14:56.760Z,46.5
2022-08-11T09:17:46.808Z,42.9
2022-08-11T09:20:40.892Z,44.7
2022-08-11T09:27:18.749Z,44.3
2022-08-11T09:30:07.428Z,42.9
2022-08-11T09:32:57.737Z,43.2
2022-08-11T09:35:49.855Z,42.9
2022-08-11T09:38:39.271Z,42.6
2022-08-11T09:42:03.124Z,41.7
2022-08-11T09:44:52.711Z,41.7
2022-08-11T09:47:40.478Z,41.9
2022-08-11T09:50:30.134Z,41.8
2022-08-11T09:53:36.535Z,41.1
2022-08-11T09:56:29.693Z,38.7
2022-08-11T10:01:26.894Z,38.8
2022-08-11T10:04:20.179Z,38.9
2022-08-11T10:07:15.898Z,36.9
2022-08-11T10:10:06.233Z,37.9
2022-08-11T10:12:55.796Z,37.3
2022-08-11T10:16:02.359Z,35.7
2022-08-11T10:19:03.005Z,36.4
2022-08-11T10:21:51.615Z,36.8
2022-08-11T10:25:12.032Z,35.2
2022-08-11T10:28:50.015Z,35
2022-08-11T10:36:44.722Z,34.8
2022-08-11T10:39:33.073Z,34.5
2022-08-11T10:42:35.424Z,33
2022-08-11T10:45:47.722Z,31.3
2022-08-11T10:49:07.521Z,33
2022-08-11T10:51:58.764Z,32.3
2022-08-11T10:55:18.697Z,30.4
2022-08-11T10:58:38.448Z,29.3
2022-08-11T11:01:34.602Z,29.4
2022-08-11T11:04:27.120Z,28.6
2022-08-11T11:07:29.164Z,29
2022-08-11T11:10:24.082Z,27.8
2022-08-11T11:13:11.823Z,27.8
2022-08-11T11:16:31.033Z,27.4
2022-08-11T11:19:52.048Z,23.9
2022-08-11T11:22:45.312Z,27.9
2022-08-11T11:25:37.107Z,26.3
2022-08-11T11:28:51.276Z,26.8
2022-08-11T11:31:56.212Z,25.8
2022-08-11T11:35:00.367Z,25.4
2022-08-11T11:38:04.729Z,26.1
2022-08-11T11:40:54.369Z,26.3
2022-08-11T11:44:15.559Z,25.4
2022-08-11T11:47:04.940Z,26.4
2022-08-11T11:49:53.635Z,24.2
2022-08-11T11:52:41.949Z,24.7
2022-08-11T11:55:30.220Z,24.9
2022-08-11T11:58:18.819Z,23.8
2022-08-11T12:01:38.874Z,23
2022-08-11T12:04:29.110Z,24
2022-08-11T12:07:17.751Z,23.9
2022-08-11T12:10:37.661Z,25.7
2022-08-11T12:13:28.852Z,25.4
2022-08-11T12:16:36.170Z,24.4
2022-08-11T12:19:26.601Z,24.9
2022-08-11T12:22:14.823Z,22.6
2022-08-11T12:25:35.016Z,22.4
2022-08-11T12:28:54.685Z,21.3
2022-08-11T12:31:45.737Z,22.3
2022-08-11T12:34:34.679Z,21.2
2022-08-11T12:37:22.402Z,20.3
2022-08-11T12:40:43.803Z,18
2022-08-11T12:44:32.320Z,17.2
2022-08-11T12:48:07.962Z,15.8
2022-08-11T12:52:29.126Z,15.7
2022-08-11T12:55:21.813Z,15.6
2022-08-11T13:01:01.840Z,13.6
2022-08-11T13:04:21.350Z,14
2022-08-11T13:07:49.888Z,14
2022-08-11T13:10:39.144Z,13.7
2022-08-11T13:13:59.337Z,12.2
2022-08-11T13:16:48.894Z,13.4
2022-08-11T13:20:09.931Z,12.3
2022-08-11T13:23:01.994Z,12.3
2022-08-11T13:25:50.934Z,12.7
2022-08-11T13:28:39.965Z,12.4
2022-08-11T13:31:27.582Z,12.5
2022-08-11T13:34:15.720Z,12.2
2022-08-11T13:37:05.712Z,12.1
2022-08-11T13:39:56.802Z,13.3
2022-08-11T13:42:46.562Z,13
2022-08-11T13:45:36.229Z,13
2022-08-11T13:48:24.465Z,13.2
2022-08-11T13:51:12.911Z,13.2
2022-08-11T13:54:18.754Z,12.9
2022-08-11T13:57:38.585Z,13.1
2022-08-11T14:00:56.381Z,12.9
2022-08-11T14:04:29.238Z,11.7
2022-08-11T14:07:25.522Z,11.5
2022-08-11T14:10:22.529Z,11.3
2022-08-11T14:13:14.266Z,11.5
2022-08-11T14:16:34.225Z,12
2022-08-11T14:19:27.515Z,12.8
2022-08-11T14:22:17.805Z,11.7
2022-08-11T14:25:06.892Z,11.8
2022-08-11T14:28:32.912Z,13.3
2022-08-11T14:31:22.564Z,11.2
2022-08-11T14:34:12.493Z,11
2022-08-11T14:37:03.449Z,11.8
2022-08-11T14:40:00.717Z,10.7
2022-08-11T14:50:05.033Z,11.1
2022-08-11T14:53:03.498Z,11.5
2022-08-11T14:55:53.825Z,10.7
2022-08-11T14:59:12.885Z,12.3
2022-08-11T15:02:00.756Z,12.2
2022-08-11T15:05:21.608Z,12.9
2022-08-11T15:08:10.096Z,12.1
2022-08-11T15:11:00.587Z,12.7
2022-08-11T15:14:56.074Z,12.7
2022-08-11T15:18:15.963Z,13.9
2022-08-11T15:21:05.544Z,14.9
2022-08-11T15:24:25.241Z,14.2
2022-08-11T15:27:15.758Z,12.8
2022-08-11T15:30:40.310Z,13.6
2022-08-11T15:34:01.341Z,13.7
2022-08-11T15:37:24.190Z,12.1
2022-08-11T15:40:31.085Z,11.7
2022-08-11T15:45:40.880Z,11.7
2022-08-11T15:48:35.177Z,11.5
2022-08-11T15:51:30.933Z,11
2022-08-11T15:54:23.119Z,11.4
2022-08-11T15:57:15.763Z,12.1
2022-08-11T16:06:55.940Z,13.9
2022-08-11T16:09:51.731Z,14.8
2022-08-11T16:12:44.927Z,14.8
2022-08-11T16:18:58.899Z,14.5
2022-08-11T16:21:49.672Z,14.1
2022-08-11T16:27:01.456Z,13.1
2022-08-11T16:30:04.430Z,12.8
2022-08-11T16:32:53.619Z,11.7
2022-08-11T16:35:43.600Z,11.7
2022-08-11T16:40:43.234Z,12.9
2022-08-11T16:43:34.829Z,12
2022-08-11T16:46:58.873Z,12.5
2022-08-11T16:49:52.598Z,12.9
2022-08-11T16:52:42.493Z,12.4
2022-08-11T16:55:51.494Z,12.2
2022-08-11T16:58:43.199Z,12.6
2022-08-11T17:02:07.648Z,11.7
2022-08-11T17:10:02.171Z,12.2
2022-08-11T17:13:32.973Z,12.3
2022-08-11T17:16:25.420Z,12
2022-08-11T17:19:17.080Z,12.9
2022-08-11T17:22:09.497Z,13.4
2022-08-11T17:25:29.309Z,14.1
2022-08-11T17:28:18.776Z,14.6
2022-08-11T17:31:17.769Z,14.7
2022-08-11T17:34:46.075Z,15.5
2022-08-11T17:38:08.906Z,16.5
2022-08-11T17:41:00.010Z,16.3
2022-08-11T17:44:21.427Z,17.4
2022-08-11T17:47:41.812Z,18
2022-08-11T17:51:02.043Z,17.5
2022-08-11T17:54:02.131Z,21.7
2022-08-11T17:57:38.400Z,18.9
2022-08-11T18:01:08.778Z,20.5
2022-08-11T18:03:59.677Z,19.6
2022-08-11T18:06:51.245Z,20.7
2022-08-11T18:09:39.918Z,20.1
2022-08-11T18:12:59.231Z,19.8
2022-08-11T18:16:18.801Z,20.8
2022-08-11T18:19:39.015Z,26.7
2022-08-11T18:22:58.202Z,22.6
2022-08-11T18:26:21.840Z,24.9
2022-08-11T18:29:42.471Z,25.8
2022-08-11T18:33:39.798Z,27.4
2022-08-11T18:37:09.479Z,29.8
2022-08-11T18:40:45.101Z,30.1
2022-08-11T18:44:08.027Z,30.5
2022-08-11T18:47:31.069Z,33.2
2022-08-11T18:51:04.483Z,33.6
2022-08-11T18:54:53.751Z,33.3
2022-08-11T18:58:15.405Z,34.7
2022-08-11T19:01:46.003Z,35.7
2022-08-11T19:05:08.151Z,36.9
2022-08-11T19:08:28.537Z,38.2
2022-08-11T19:11:52.682Z,38.3
2022-08-11T19:15:13.673Z,37.8
2022-08-11T19:18:34.513Z,37.4
2022-08-11T19:21:56.472Z,37.8
2022-08-11T19:25:19.913Z,37.9
2022-08-11T19:28:45.798Z,37.5
2022-08-11T19:32:07.403Z,38.1
2022-08-11T19:35:28.364Z,39.7
2022-08-11T19:38:48.883Z,38.5
2022-08-11T19:42:10.136Z,38.9
2022-08-11T19:45:31.896Z,39.9
2022-08-11T19:48:52.236Z,39.9
2022-08-11T19:52:13.775Z,41.5
2022-08-11T19:55:34.167Z,39.8
2022-08-11T19:58:55.758Z,40.3
2022-08-11T20:02:16.742Z,40
2022-08-11T20:05:36.998Z,40.5
2022-08-11T20:08:59.286Z,40.1
2022-08-11T20:12:20.260Z,40.1
2022-08-11T20:15:46.629Z,42.6
2022-08-11T20:19:08.468Z,41.1
2022-08-11T20:22:28.301Z,40.3
2022-08-11T20:25:48.661Z,39.6
2022-08-11T20:29:10.769Z,38.9
2022-08-11T20:32:30.507Z,38.6
2022-08-11T20:35:51.085Z,39.1
2022-08-11T20:39:11.439Z,39.4
2022-08-11T20:42:33.986Z,39.8
2022-08-11T20:45:57.377Z,39.7
2022-08-11T20:49:19.064Z,39.8
2022-08-11T20:52:42.184Z,41.1
2022-08-11T20:56:06.721Z,42
2022-08-11T20:59:27.725Z,41.6
2022-08-11T21:02:52.018Z,42
2022-08-11T21:06:13.464Z,41.4
2022-08-11T21:10:01.185Z,42.5
2022-08-11T21:13:29.923Z,42.9
2022-08-11T21:16:56.045Z,43.7
2022-08-11T21:20:20.615Z,43.3
2022-08-11T21:23:41.437Z,44.1
2022-08-11T21:27:03.800Z,43.8
2022-08-11T21:30:26.300Z,43.3
2022-08-11T21:33:47.998Z,44.2
2022-08-11T21:37:09.474Z,44.3
2022-08-11T21:40:32.994Z,45
2022-08-11T21:43:53.317Z,44.3
2022-08-11T21:47:17.328Z,45.5
2022-08-11T21:50:40.998Z,44.9
2022-08-11T21:54:00.657Z,47.3
2022-08-11T21:57:21.009Z,45.5
2022-08-11T22:00:41.243Z,45
2022-08-11T22:04:01.627Z,45.7
2022-08-11T22:07:22.489Z,45.8
2022-08-11T22:10:43.182Z,46.4
2022-08-11T22:14:07.773Z,46.1
2022-08-11T22:17:28.034Z,45.9
2022-08-11T22:20:47.672Z,46.2
2022-08-11T22:24:09.649Z,46.5
2022-08-11T22:27:29.552Z,46.4
2022-08-11T22:30:49.529Z,46.9
2022-08-11T22:34:10.881Z,46.6
2022-08-11T22:37:30.559Z,47.1
2022-08-11T22:40:52.072Z,47.3
2022-08-11T22:44:11.877Z,47.5
2022-08-11T22:47:38.312Z,47.9
2022-08-11T22:51:04.013Z,48.8
2022-08-11T22:54:24.330Z,48.3
2022-08-11T22:58:00.130Z,48.7
2022-08-11T23:01:21.814Z,48.6
2022-08-11T23:04:41.245Z,49.5
2022-08-11T23:08:01.005Z,48.8
2022-08-11T23:11:20.710Z,49.2
2022-08-11T23:14:40.253Z,50.2
2022-08-11T23:18:00.616Z,49.8
2022-08-11T23:21:20.272Z,50.4
2022-08-11T23:24:40.987Z,50.5
2022-08-11T23:28:00.364Z,50.8
2022-08-11T23:31:21.954Z,50.9
2022-08-11T23:35:04.738Z,51.5
2022-08-11T23:39:01.466Z,53.4
2022-08-11T23:42:21.061Z,51.8
2022-08-11T23:45:40.172Z,51.5
2022-08-11T23:48:59.165Z,53.2
2022-08-11T23:52:20.750Z,52
2022-08-11T23:55:41.734Z,51.9
2022-08-11T23:59:03.433Z,51.5
